sensor_id;sensor_type;location;lat;lon;timestamp;P1;durP1;ratioP1;P2;durP2;ratioP2
66886;SDS011;53798;51.680;5.976;2022-08-23T00:02:24;7.90;;;2.90;;
66886;SDS011;53798;51.680;5.976;2022-08-23T00:04:55;8.07;;;2.55;;
66886;SDS011;53798;51.680;5.976;2022-08-23T00:07:36;6.65;;;2.63;;
66886;SDS011;53798;51.680;5.976;2022-08-23T00:10:10;3.80;;;2.60;;
66886;SDS011;53798;51.680;5.976;2022-08-23T00:12:41;6.13;;;2.75;;
66886;SDS011;53798;51.680;5.976;2022-08-23T00:15:12;5.90;;;3.03;;
66886;SDS011;53798;51.680;5.976;2022-08-23T00:17:42;10.00;;;2.90;;
66886;SDS011;53798;51.680;5.976;2022-08-23T00:20:11;11.80;;;3.25;;
66886;SDS011;53798;51.680;5.976;2022-08-23T00:22:42;7.38;;;3.10;;
66886;SDS011;53798;51.680;5.976;2022-08-23T00:25:10;6.40;;;2.92;;
66886;SDS011;53798;51.680;5.976;2022-08-23T00:27:39;6.28;;;3.10;;
66886;SDS011;53798;51.680;5.976;2022-08-23T00:30:07;6.07;;;3.42;;
66886;SDS011;53798;51.680;5.976;2022-08-23T00:32:38;8.88;;;3.35;;
66886;SDS011;53798;51.680;5.976;2022-08-23T00:35:09;6.15;;;3.25;;
66886;SDS011;53798;51.680;5.976;2022-08-23T00:37:52;7.75;;;3.70;;
66886;SDS011;53798;51.680;5.976;2022-08-23T00:40:47;9.75;;;3.50;;
66886;SDS011;53798;51.680;5.976;2022-08-23T00:43:23;8.07;;;3.60;;
66886;SDS011;53798;51.680;5.976;2022-08-23T00:46:29;6.63;;;3.28;;
66886;SDS011;53798;51.680;5.976;2022-08-23T00:49:28;7.45;;;3.22;;
66886;SDS011;53798;51.680;5.976;2022-08-23T00:52:01;11.45;;;3.70;;
66886;SDS011;53798;51.680;5.976;2022-08-23T00:54:39;7.55;;;3.20;;
66886;SDS011;53798;51.680;5.976;2022-08-23T00:57:10;8.55;;;3.60;;
66886;SDS011;53798;51.680;5.976;2022-08-23T00:59:42;6.03;;;3.30;;
66886;SDS011;53798;51.680;5.976;2022-08-23T01:02:09;9.27;;;3.72;;
66886;SDS011;53798;51.680;5.976;2022-08-23T01:04:41;8.32;;;3.38;;
66886;SDS011;53798;51.680;5.976;2022-08-23T01:07:22;6.22;;;3.88;;
66886;SDS011;53798;51.680;5.976;2022-08-23T01:10:40;8.85;;;3.85;;
66886;SDS011;53798;51.680;5.976;2022-08-23T01:13:16;7.30;;;3.22;;
66886;SDS011;53798;51.680;5.976;2022-08-23T01:18:41;6.25;;;3.58;;
66886;SDS011;53798;51.680;5.976;2022-08-23T01:23:57;8.95;;;3.95;;
66886;SDS011;53798;51.680;5.976;2022-08-23T01:26:30;8.13;;;3.72;;
66886;SDS011;53798;51.680;5.976;2022-08-23T01:29:02;6.32;;;3.58;;
66886;SDS011;53798;51.680;5.976;2022-08-23T01:31:32;13.55;;;3.70;;
66886;SDS011;53798;51.680;5.976;2022-08-23T01:34:03;7.15;;;3.70;;
66886;SDS011;53798;51.680;5.976;2022-08-23T01:36:37;6.57;;;3.05;;
66886;SDS011;53798;51.680;5.976;2022-08-23T01:39:05;5.93;;;3.40;;
66886;SDS011;53798;51.680;5.976;2022-08-23T01:41:34;8.05;;;3.30;;
66886;SDS011;53798;51.680;5.976;2022-08-23T01:44:04;6.72;;;3.90;;
66886;SDS011;53798;51.680;5.976;2022-08-23T01:46:32;6.07;;;3.13;;
66886;SDS011;53798;51.680;5.976;2022-08-23T01:49:00;6.25;;;3.95;;
66886;SDS011;53798;51.680;5.976;2022-08-23T01:51:34;11.80;;;4.35;;
66886;SDS011;53798;51.680;5.976;2022-08-23T01:54:01;9.40;;;4.32;;
66886;SDS011;53798;51.680;5.976;2022-08-23T01:56:29;7.38;;;3.97;;
66886;SDS011;53798;51.680;5.976;2022-08-23T01:59:07;10.10;;;3.92;;
66886;SDS011;53798;51.680;5.976;2022-08-23T02:01:44;7.10;;;4.20;;
66886;SDS011;53798;51.680;5.976;2022-08-23T02:04:13;10.25;;;4.47;;
66886;SDS011;53798;51.680;5.976;2022-08-23T02:06:40;8.73;;;4.53;;
66886;SDS011;53798;51.680;5.976;2022-08-23T02:09:10;8.77;;;4.63;;
66886;SDS011;53798;51.680;5.976;2022-08-23T02:11:44;9.68;;;4.40;;
66886;SDS011;53798;51.680;5.976;2022-08-23T02:14:14;6.22;;;4.20;;
66886;SDS011;53798;51.680;5.976;2022-08-23T02:16:53;11.88;;;5.00;;
66886;SDS011;53798;51.680;5.976;2022-08-23T02:19:32;8.48;;;4.35;;
66886;SDS011;53798;51.680;5.976;2022-08-23T02:22:02;8.07;;;4.53;;
66886;SDS011;53798;51.680;5.976;2022-08-23T02:24:33;7.68;;;4.45;;
66886;SDS011;53798;51.680;5.976;2022-08-23T02:27:04;8.00;;;4.50;;
66886;SDS011;53798;51.680;5.976;2022-08-23T02:29:37;7.28;;;4.10;;
66886;SDS011;53798;51.680;5.976;2022-08-23T02:32:09;10.32;;;4.78;;
66886;SDS011;53798;51.680;5.976;2022-08-23T02:34:41;7.80;;;4.30;;
66886;SDS011;53798;51.680;5.976;2022-08-23T02:37:18;8.82;;;4.53;;
66886;SDS011;53798;51.680;5.976;2022-08-23T02:39:47;7.53;;;4.70;;
66886;SDS011;53798;51.680;5.976;2022-08-23T02:42:15;6.03;;;4.00;;
66886;SDS011;53798;51.680;5.976;2022-08-23T02:44:43;7.00;;;4.15;;
66886;SDS011;53798;51.680;5.976;2022-08-23T02:47:10;7.82;;;4.18;;
66886;SDS011;53798;51.680;5.976;2022-08-23T02:49:42;8.00;;;4.72;;
66886;SDS011;53798;51.680;5.976;2022-08-23T02:52:09;6.35;;;4.03;;
66886;SDS011;53798;51.680;5.976;2022-08-23T02:54:36;10.23;;;4.22;;
66886;SDS011;53798;51.680;5.976;2022-08-23T02:57:04;6.32;;;3.83;;
66886;SDS011;53798;51.680;5.976;2022-08-23T02:59:32;7.97;;;3.70;;
66886;SDS011;53798;51.680;5.976;2022-08-23T03:01:59;6.97;;;3.63;;
66886;SDS011;53798;51.680;5.976;2022-08-23T03:04:31;7.85;;;3.90;;
66886;SDS011;53798;51.680;5.976;2022-08-23T03:06:58;7.28;;;4.80;;
66886;SDS011;53798;51.680;5.976;2022-08-23T03:09:26;8.65;;;4.05;;
66886;SDS011;53798;51.680;5.976;2022-08-23T03:11:54;6.50;;;4.50;;
66886;SDS011;53798;51.680;5.976;2022-08-23T03:14:21;8.80;;;4.03;;
66886;SDS011;53798;51.680;5.976;2022-08-23T03:16:50;8.48;;;4.47;;
66886;SDS011;53798;51.680;5.976;2022-08-23T03:19:18;8.10;;;4.32;;
66886;SDS011;53798;51.680;5.976;2022-08-23T03:21:46;10.25;;;4.90;;
66886;SDS011;53798;51.680;5.976;2022-08-23T03:24:16;8.90;;;4.85;;
66886;SDS011;53798;51.680;5.976;2022-08-23T03:26:43;10.88;;;4.63;;
66886;SDS011;53798;51.680;5.976;2022-08-23T03:29:13;7.18;;;4.80;;
66886;SDS011;53798;51.680;5.976;2022-08-23T03:32:09;6.20;;;4.30;;
66886;SDS011;53798;51.680;5.976;2022-08-23T03:34:38;5.60;;;3.80;;
66886;SDS011;53798;51.680;5.976;2022-08-23T03:37:08;6.40;;;4.10;;
66886;SDS011;53798;51.680;5.976;2022-08-23T03:39:36;10.10;;;4.70;;
66886;SDS011;53798;51.680;5.976;2022-08-23T03:42:03;7.40;;;4.30;;
66886;SDS011;53798;51.680;5.976;2022-08-23T03:44:32;11.10;;;4.57;;
66886;SDS011;53798;51.680;5.976;2022-08-23T03:47:01;7.60;;;4.53;;
66886;SDS011;53798;51.680;5.976;2022-08-23T03:49:30;6.93;;;4.70;;
66886;SDS011;53798;51.680;5.976;2022-08-23T03:51:59;8.77;;;4.95;;
66886;SDS011;53798;51.680;5.976;2022-08-23T03:54:29;7.93;;;5.05;;
66886;SDS011;53798;51.680;5.976;2022-08-23T03:56:58;8.00;;;5.05;;
66886;SDS011;53798;51.680;5.976;2022-08-23T03:59:33;9.65;;;5.32;;
66886;SDS011;53798;51.680;5.976;2022-08-23T04:02:06;10.18;;;4.85;;
66886;SDS011;53798;51.680;5.976;2022-08-23T04:04:35;7.38;;;5.78;;
66886;SDS011;53798;51.680;5.976;2022-08-23T04:07:31;8.95;;;5.20;;
66886;SDS011;53798;51.680;5.976;2022-08-23T04:09:59;9.63;;;5.30;;
66886;SDS011;53798;51.680;5.976;2022-08-23T04:12:31;8.57;;;5.45;;
66886;SDS011;53798;51.680;5.976;2022-08-23T04:14:59;9.48;;;5.97;;
66886;SDS011;53798;51.680;5.976;2022-08-23T04:17:33;7.97;;;6.03;;
66886;SDS011;53798;51.680;5.976;2022-08-23T04:20:02;8.27;;;5.35;;
66886;SDS011;53798;51.680;5.976;2022-08-23T04:22:36;10.25;;;5.53;;
66886;SDS011;53798;51.680;5.976;2022-08-23T04:25:03;10.68;;;6.18;;
66886;SDS011;53798;51.680;5.976;2022-08-23T04:27:52;10.80;;;6.85;;
66886;SDS011;53798;51.680;5.976;2022-08-23T04:30:20;10.98;;;6.40;;
66886;SDS011;53798;51.680;5.976;2022-08-23T04:32:49;10.45;;;6.38;;
66886;SDS011;53798;51.680;5.976;2022-08-23T04:35:16;16.35;;;7.35;;
66886;SDS011;53798;51.680;5.976;2022-08-23T04:37:44;16.35;;;8.68;;
66886;SDS011;53798;51.680;5.976;2022-08-23T04:40:11;14.75;;;8.63;;
66886;SDS011;53798;51.680;5.976;2022-08-23T04:42:57;13.00;;;7.80;;
66886;SDS011;53798;51.680;5.976;2022-08-23T04:45:25;14.80;;;8.23;;
66886;SDS011;53798;51.680;5.976;2022-08-23T04:47:53;14.18;;;7.82;;
66886;SDS011;53798;51.680;5.976;2022-08-23T04:50:20;16.92;;;8.73;;
66886;SDS011;53798;51.680;5.976;2022-08-23T04:53:07;19.30;;;8.23;;
66886;SDS011;53798;51.680;5.976;2022-08-23T04:55:42;13.85;;;8.27;;
66886;SDS011;53798;51.680;5.976;2022-08-23T04:58:09;19.80;;;8.85;;
66886;SDS011;53798;51.680;5.976;2022-08-23T05:00:43;13.70;;;9.10;;
66886;SDS011;53798;51.680;5.976;2022-08-23T05:03:21;14.40;;;8.93;;
66886;SDS011;53798;51.680;5.976;2022-08-23T05:05:49;11.95;;;7.75;;
66886;SDS011;53798;51.680;5.976;2022-08-23T05:08:23;10.65;;;6.95;;
66886;SDS011;53798;51.680;5.976;2022-08-23T05:10:52;9.02;;;6.70;;
66886;SDS011;53798;51.680;5.976;2022-08-23T05:13:20;13.98;;;6.88;;
66886;SDS011;53798;51.680;5.976;2022-08-23T05:15:49;16.25;;;7.30;;
66886;SDS011;53798;51.680;5.976;2022-08-23T05:18:20;15.05;;;8.15;;
66886;SDS011;53798;51.680;5.976;2022-08-23T05:20:49;12.02;;;7.75;;
66886;SDS011;53798;51.680;5.976;2022-08-23T05:23:17;16.25;;;7.97;;
66886;SDS011;53798;51.680;5.976;2022-08-23T05:25:54;13.65;;;7.25;;
66886;SDS011;53798;51.680;5.976;2022-08-23T05:28:32;15.00;;;7.50;;
66886;SDS011;53798;51.680;5.976;2022-08-23T05:31:03;15.65;;;7.70;;
66886;SDS011;53798;51.680;5.976;2022-08-23T05:33:50;11.63;;;6.93;;
66886;SDS011;53798;51.680;5.976;2022-08-23T05:36:35;10.57;;;6.60;;
66886;SDS011;53798;51.680;5.976;2022-08-23T05:39:04;8.02;;;6.38;;
66886;SDS011;53798;51.680;5.976;2022-08-23T05:41:35;12.13;;;6.78;;
66886;SDS011;53798;51.680;5.976;2022-08-23T05:44:06;10.98;;;7.03;;
66886;SDS011;53798;51.680;5.976;2022-08-23T05:46:40;12.27;;;6.85;;
66886;SDS011;53798;51.680;5.976;2022-08-23T05:49:33;10.60;;;7.30;;
66886;SDS011;53798;51.680;5.976;2022-08-23T05:52:05;9.82;;;7.03;;
66886;SDS011;53798;51.680;5.976;2022-08-23T05:54:36;12.02;;;7.50;;
66886;SDS011;53798;51.680;5.976;2022-08-23T05:57:23;11.13;;;6.75;;
66886;SDS011;53798;51.680;5.976;2022-08-23T05:59:51;9.85;;;6.93;;
66886;SDS011;53798;51.680;5.976;2022-08-23T06:02:18;10.80;;;7.05;;
66886;SDS011;53798;51.680;5.976;2022-08-23T06:04:45;9.57;;;7.20;;
66886;SDS011;53798;51.680;5.976;2022-08-23T06:07:14;10.93;;;8.32;;
66886;SDS011;53798;51.680;5.976;2022-08-23T06:09:42;15.95;;;9.40;;
66886;SDS011;53798;51.680;5.976;2022-08-23T06:12:10;12.10;;;9.27;;
66886;SDS011;53798;51.680;5.976;2022-08-23T06:14:37;19.90;;;9.13;;
66886;SDS011;53798;51.680;5.976;2022-08-23T06:17:05;12.50;;;9.25;;
66886;SDS011;53798;51.680;5.976;2022-08-23T06:19:32;14.05;;;9.40;;
66886;SDS011;53798;51.680;5.976;2022-08-23T06:21:59;13.60;;;9.30;;
66886;SDS011;53798;51.680;5.976;2022-08-23T06:24:31;14.13;;;9.70;;
66886;SDS011;53798;51.680;5.976;2022-08-23T06:27:09;14.63;;;9.13;;
66886;SDS011;53798;51.680;5.976;2022-08-23T06:29:38;13.82;;;9.45;;
66886;SDS011;53798;51.680;5.976;2022-08-23T06:32:43;14.15;;;8.43;;
66886;SDS011;53798;51.680;5.976;2022-08-23T06:35:47;16.02;;;9.60;;
66886;SDS011;53798;51.680;5.976;2022-08-23T06:38:24;12.90;;;9.82;;
66886;SDS011;53798;51.680;5.976;2022-08-23T06:41:23;16.30;;;10.40;;
66886;SDS011;53798;51.680;5.976;2022-08-23T06:44:19;14.13;;;9.93;;
66886;SDS011;53798;51.680;5.976;2022-08-23T06:47:10;19.88;;;9.82;;
66886;SDS011;53798;51.680;5.976;2022-08-23T06:49:38;20.38;;;11.32;;
66886;SDS011;53798;51.680;5.976;2022-08-23T06:52:25;20.77;;;10.23;;
66886;SDS011;53798;51.680;5.976;2022-08-23T06:55:12;16.52;;;10.68;;
66886;SDS011;53798;51.680;5.976;2022-08-23T06:58:01;13.20;;;10.82;;
66886;SDS011;53798;51.680;5.976;2022-08-23T07:01:07;13.43;;;10.45;;
66886;SDS011;53798;51.680;5.976;2022-08-23T07:04:28;16.55;;;10.70;;
66886;SDS011;53798;51.680;5.976;2022-08-23T07:07:28;14.57;;;9.38;;
66886;SDS011;53798;51.680;5.976;2022-08-23T07:10:08;17.10;;;12.73;;
66886;SDS011;53798;51.680;5.976;2022-08-23T07:12:40;17.17;;;12.98;;
66886;SDS011;53798;51.680;5.976;2022-08-23T07:15:12;18.80;;;13.13;;
66886;SDS011;53798;51.680;5.976;2022-08-23T07:17:44;14.27;;;11.43;;
66886;SDS011;53798;51.680;5.976;2022-08-23T07:20:11;15.02;;;12.80;;
66886;SDS011;53798;51.680;5.976;2022-08-23T07:22:43;17.98;;;13.32;;
66886;SDS011;53798;51.680;5.976;2022-08-23T07:25:12;14.88;;;13.13;;
66886;SDS011;53798;51.680;5.976;2022-08-23T07:27:45;16.52;;;13.57;;
66886;SDS011;53798;51.680;5.976;2022-08-23T07:30:15;18.40;;;12.68;;
66886;SDS011;53798;51.680;5.976;2022-08-23T07:32:43;20.40;;;13.50;;
66886;SDS011;53798;51.680;5.976;2022-08-23T07:35:22;16.75;;;13.95;;
66886;SDS011;53798;51.680;5.976;2022-08-23T07:37:59;18.98;;;13.73;;
66886;SDS011;53798;51.680;5.976;2022-08-23T07:40:33;21.42;;;14.00;;
66886;SDS011;53798;51.680;5.976;2022-08-23T07:43:06;16.30;;;13.15;;
66886;SDS011;53798;51.680;5.976;2022-08-23T07:45:34;20.33;;;14.35;;
66886;SDS011;53798;51.680;5.976;2022-08-23T07:48:05;21.30;;;14.65;;
66886;SDS011;53798;51.680;5.976;2022-08-23T07:50:49;21.38;;;14.25;;
66886;SDS011;53798;51.680;5.976;2022-08-23T07:53:29;17.67;;;14.05;;
66886;SDS011;53798;51.680;5.976;2022-08-23T07:56:05;16.88;;;14.88;;
66886;SDS011;53798;51.680;5.976;2022-08-23T07:58:52;18.65;;;14.00;;
66886;SDS011;53798;51.680;5.976;2022-08-23T08:01:58;20.67;;;13.80;;
66886;SDS011;53798;51.680;5.976;2022-08-23T08:04:26;21.42;;;13.38;;
66886;SDS011;53798;51.680;5.976;2022-08-23T08:06:54;20.70;;;14.63;;
66886;SDS011;53798;51.680;5.976;2022-08-23T08:09:43;14.80;;;12.80;;
66886;SDS011;53798;51.680;5.976;2022-08-23T08:12:12;17.75;;;14.02;;
66886;SDS011;53798;51.680;5.976;2022-08-23T08:14:41;18.92;;;14.38;;
66886;SDS011;53798;51.680;5.976;2022-08-23T08:17:10;20.55;;;13.45;;
66886;SDS011;53798;51.680;5.976;2022-08-23T08:19:56;28.65;;;14.18;;
66886;SDS011;53798;51.680;5.976;2022-08-23T08:22:32;19.08;;;14.35;;
66886;SDS011;53798;51.680;5.976;2022-08-23T08:25:26;18.42;;;13.68;;
66886;SDS011;53798;51.680;5.976;2022-08-23T08:27:55;17.08;;;13.93;;
66886;SDS011;53798;51.680;5.976;2022-08-23T08:30:24;23.73;;;12.30;;
66886;SDS011;53798;51.680;5.976;2022-08-23T08:32:52;22.90;;;13.00;;
66886;SDS011;53798;51.680;5.976;2022-08-23T08:35:20;21.55;;;13.65;;
66886;SDS011;53798;51.680;5.976;2022-08-23T08:37:50;19.23;;;12.55;;
66886;SDS011;53798;51.680;5.976;2022-08-23T08:40:33;17.85;;;12.60;;
66886;SDS011;53798;51.680;5.976;2022-08-23T08:46:02;20.48;;;11.77;;
66886;SDS011;53798;51.680;5.976;2022-08-23T08:48:52;35.67;;;11.68;;
66886;SDS011;53798;51.680;5.976;2022-08-23T08:54:44;14.82;;;8.40;;
66886;SDS011;53798;51.680;5.976;2022-08-23T08:57:21;19.52;;;9.38;;
66886;SDS011;53798;51.680;5.976;2022-08-23T09:00:02;19.48;;;9.48;;
66886;SDS011;53798;51.680;5.976;2022-08-23T09:02:41;56.33;;;10.95;;
66886;SDS011;53798;51.680;5.976;2022-08-23T09:05:22;24.98;;;8.75;;
66886;SDS011;53798;51.680;5.976;2022-08-23T09:19:58;22.50;;;5.57;;
66886;SDS011;53798;51.680;5.976;2022-08-23T09:22:36;24.30;;;6.03;;
66886;SDS011;53798;51.680;5.976;2022-08-23T09:25:19;15.00;;;6.22;;
66886;SDS011;53798;51.680;5.976;2022-08-23T09:27:57;14.68;;;6.47;;
66886;SDS011;53798;51.680;5.976;2022-08-23T09:30:43;16.25;;;6.57;;
66886;SDS011;53798;51.680;5.976;2022-08-23T09:33:25;14.25;;;6.05;;
66886;SDS011;53798;51.680;5.976;2022-08-23T09:36:15;26.83;;;6.95;;
66886;SDS011;53798;51.680;5.976;2022-08-23T09:38:58;13.30;;;5.75;;
66886;SDS011;53798;51.680;5.976;2022-08-23T09:44:00;10.43;;;6.15;;
66886;SDS011;53798;51.680;5.976;2022-08-23T09:46:36;11.85;;;6.25;;
66886;SDS011;53798;51.680;5.976;2022-08-23T09:49:25;11.18;;;6.70;;
66886;SDS011;53798;51.680;5.976;2022-08-23T09:52:54;11.70;;;5.55;;
66886;SDS011;53798;51.680;5.976;2022-08-23T09:55:05;19.35;;;6.10;;
66886;SDS011;53798;51.680;5.976;2022-08-23T09:57:50;18.15;;;5.18;;
66886;SDS011;53798;51.680;5.976;2022-08-23T10:00:27;15.73;;;6.22;;
66886;SDS011;53798;51.680;5.976;2022-08-23T10:06:14;9.32;;;6.20;;
66886;SDS011;53798;51.680;5.976;2022-08-23T10:09:00;15.07;;;5.65;;
66886;SDS011;53798;51.680;5.976;2022-08-23T10:11:36;12.45;;;5.15;;
66886;SDS011;53798;51.680;5.976;2022-08-23T10:14:14;16.25;;;5.22;;
66886;SDS011;53798;51.680;5.976;2022-08-23T10:16:59;17.85;;;5.82;;
66886;SDS011;53798;51.680;5.976;2022-08-23T10:22:36;12.07;;;5.82;;
66886;SDS011;53798;51.680;5.976;2022-08-23T10:25:44;13.40;;;6.25;;
66886;SDS011;53798;51.680;5.976;2022-08-23T10:41:09;14.82;;;3.20;;
66886;SDS011;53798;51.680;5.976;2022-08-23T10:49:51;8.80;;;5.35;;
66886;SDS011;53798;51.680;5.976;2022-08-23T10:52:22;12.60;;;4.70;;
66886;SDS011;53798;51.680;5.976;2022-08-23T10:55:03;12.80;;;4.20;;
66886;SDS011;53798;51.680;5.976;2022-08-23T10:57:50;13.50;;;3.78;;
66886;SDS011;53798;51.680;5.976;2022-08-23T11:00:21;7.20;;;2.97;;
66886;SDS011;53798;51.680;5.976;2022-08-23T11:02:58;8.00;;;2.75;;
66886;SDS011;53798;51.680;5.976;2022-08-23T11:05:36;11.15;;;3.10;;
66886;SDS011;53798;51.680;5.976;2022-08-23T11:08:35;5.45;;;2.05;;
66886;SDS011;53798;51.680;5.976;2022-08-23T11:11:32;8.52;;;2.10;;
66886;SDS011;53798;51.680;5.976;2022-08-23T11:14:25;10.88;;;2.42;;
66886;SDS011;53798;51.680;5.976;2022-08-23T11:17:21;9.88;;;2.25;;
66886;SDS011;53798;51.680;5.976;2022-08-23T11:19:58;11.55;;;1.90;;
66886;SDS011;53798;51.680;5.976;2022-08-23T11:22:32;12.80;;;2.30;;
66886;SDS011;53798;51.680;5.976;2022-08-23T11:28:29;6.22;;;2.10;;
66886;SDS011;53798;51.680;5.976;2022-08-23T11:36:14;17.63;;;2.50;;
66886;SDS011;53798;51.680;5.976;2022-08-23T11:41:24;4.30;;;1.70;;
66886;SDS011;53798;51.680;5.976;2022-08-23T11:44:34;4.93;;;1.95;;
66886;SDS011;53798;51.680;5.976;2022-08-23T11:47:14;5.72;;;2.08;;
66886;SDS011;53798;51.680;5.976;2022-08-23T11:56:41;11.05;;;2.45;;
66886;SDS011;53798;51.680;5.976;2022-08-23T12:05:00;34.13;;;4.28;;
66886;SDS011;53798;51.680;5.976;2022-08-23T12:18:49;10.88;;;2.38;;
66886;SDS011;53798;51.680;5.976;2022-08-23T12:24:25;9.85;;;2.15;;
66886;SDS011;53798;51.680;5.976;2022-08-23T12:27:11;9.23;;;2.30;;
66886;SDS011;53798;51.680;5.976;2022-08-23T12:30:00;16.02;;;2.33;;
66886;SDS011;53798;51.680;5.976;2022-08-23T12:38:32;11.98;;;2.70;;
66886;SDS011;53798;51.680;5.976;2022-08-23T12:41:31;5.95;;;1.95;;
66886;SDS011;53798;51.680;5.976;2022-08-23T12:44:16;13.48;;;2.30;;
66886;SDS011;53798;51.680;5.976;2022-08-23T12:46:47;5.88;;;2.03;;
66886;SDS011;53798;51.680;5.976;2022-08-23T12:49:31;8.90;;;2.15;;
66886;SDS011;53798;51.680;5.976;2022-08-23T12:52:10;6.35;;;1.60;;
66886;SDS011;53798;51.680;5.976;2022-08-23T12:54:43;5.78;;;1.88;;
66886;SDS011;53798;51.680;5.976;2022-08-23T12:57:18;4.70;;;1.67;;
66886;SDS011;53798;51.680;5.976;2022-08-23T13:00:39;8.43;;;1.75;;
66886;SDS011;53798;51.680;5.976;2022-08-23T13:03:01;6.23;;;1.70;;
66886;SDS011;53798;51.680;5.976;2022-08-23T13:06:11;5.07;;;1.52;;
66886;SDS011;53798;51.680;5.976;2022-08-23T13:08:46;3.42;;;1.40;;
66886;SDS011;53798;51.680;5.976;2022-08-23T13:11:18;5.43;;;1.50;;
66886;SDS011;53798;51.680;5.976;2022-08-23T13:13:50;5.97;;;1.52;;
66886;SDS011;53798;51.680;5.976;2022-08-23T13:16:22;7.50;;;1.55;;
66886;SDS011;53798;51.680;5.976;2022-08-23T13:18:53;7.95;;;1.40;;
66886;SDS011;53798;51.680;5.976;2022-08-23T13:21:36;3.90;;;1.37;;
66886;SDS011;53798;51.680;5.976;2022-08-23T13:30:36;6.90;;;1.48;;
66886;SDS011;53798;51.680;5.976;2022-08-23T13:33:18;8.25;;;1.95;;
66886;SDS011;53798;51.680;5.976;2022-08-23T13:35:47;4.82;;;1.20;;
66886;SDS011;53798;51.680;5.976;2022-08-23T13:38:21;5.65;;;1.50;;
66886;SDS011;53798;51.680;5.976;2022-08-23T13:49:20;6.13;;;1.70;;
66886;SDS011;53798;51.680;5.976;2022-08-23T13:54:49;2.97;;;1.50;;
66886;SDS011;53798;51.680;5.976;2022-08-23T13:57:18;11.57;;;1.70;;
66886;SDS011;53798;51.680;5.976;2022-08-23T13:59:57;7.90;;;1.60;;
66886;SDS011;53798;51.680;5.976;2022-08-23T14:02:24;9.05;;;1.92;;
66886;SDS011;53798;51.680;5.976;2022-08-23T14:04:52;18.67;;;2.50;;
66886;SDS011;53798;51.680;5.976;2022-08-23T14:07:19;13.55;;;2.38;;
66886;SDS011;53798;51.680;5.976;2022-08-23T14:09:47;7.40;;;2.00;;
66886;SDS011;53798;51.680;5.976;2022-08-23T14:12:21;4.90;;;1.88;;
66886;SDS011;53798;51.680;5.976;2022-08-23T14:14:55;7.05;;;1.75;;
66886;SDS011;53798;51.680;5.976;2022-08-23T14:17:24;5.05;;;1.60;;
66886;SDS011;53798;51.680;5.976;2022-08-23T14:19:52;5.90;;;1.40;;
66886;SDS011;53798;51.680;5.976;2022-08-23T14:22:40;6.13;;;1.52;;
66886;SDS011;53798;51.680;5.976;2022-08-23T14:25:07;8.98;;;1.58;;
66886;SDS011;53798;51.680;5.976;2022-08-23T14:27:37;11.07;;;1.60;;
66886;SDS011;53798;51.680;5.976;2022-08-23T14:30:07;11.15;;;1.70;;
66886;SDS011;53798;51.680;5.976;2022-08-23T14:32:38;14.02;;;2.05;;
66886;SDS011;53798;51.680;5.976;2022-08-23T14:35:07;10.77;;;1.63;;
66886;SDS011;53798;51.680;5.976;2022-08-23T14:37:36;6.38;;;1.70;;
66886;SDS011;53798;51.680;5.976;2022-08-23T14:40:24;16.30;;;2.25;;
66886;SDS011;53798;51.680;5.976;2022-08-23T14:42:51;25.30;;;2.50;;
66886;SDS011;53798;51.680;5.976;2022-08-23T14:45:19;34.40;;;3.15;;
66886;SDS011;53798;51.680;5.976;2022-08-23T14:47:46;46.40;;;3.90;;
66886;SDS011;53798;51.680;5.976;2022-08-23T14:50:14;7.88;;;1.48;;
66886;SDS011;53798;51.680;5.976;2022-08-23T14:52:43;3.40;;;1.20;;
66886;SDS011;53798;51.680;5.976;2022-08-23T14:55:12;5.80;;;1.33;;
66886;SDS011;53798;51.680;5.976;2022-08-23T14:57:40;2.40;;;1.08;;
66886;SDS011;53798;51.680;5.976;2022-08-23T15:00:08;8.27;;;1.10;;
66886;SDS011;53798;51.680;5.976;2022-08-23T15:02:41;4.25;;;1.20;;
66886;SDS011;53798;51.680;5.976;2022-08-23T15:05:12;3.03;;;1.10;;
66886;SDS011;53798;51.680;5.976;2022-08-23T15:07:40;8.52;;;1.15;;
66886;SDS011;53798;51.680;5.976;2022-08-23T15:10:13;2.83;;;0.90;;
66886;SDS011;53798;51.680;5.976;2022-08-23T15:13:01;4.83;;;1.30;;
66886;SDS011;53798;51.680;5.976;2022-08-23T15:15:49;2.60;;;0.98;;
66886;SDS011;53798;51.680;5.976;2022-08-23T15:18:17;6.85;;;1.23;;
66886;SDS011;53798;51.680;5.976;2022-08-23T15:20:45;2.80;;;1.10;;
66886;SDS011;53798;51.680;5.976;2022-08-23T15:23:12;3.90;;;1.23;;
66886;SDS011;53798;51.680;5.976;2022-08-23T15:25:41;3.38;;;1.10;;
66886;SDS011;53798;51.680;5.976;2022-08-23T15:28:12;11.50;;;1.23;;
66886;SDS011;53798;51.680;5.976;2022-08-23T15:30:42;7.93;;;1.27;;
66886;SDS011;53798;51.680;5.976;2022-08-23T15:33:11;11.25;;;1.48;;
66886;SDS011;53798;51.680;5.976;2022-08-23T15:35:43;5.15;;;1.05;;
66886;SDS011;53798;51.680;5.976;2022-08-23T15:38:16;5.50;;;1.40;;
66886;SDS011;53798;51.680;5.976;2022-08-23T15:40:45;6.05;;;1.10;;
66886;SDS011;53798;51.680;5.976;2022-08-23T15:43:12;5.00;;;1.42;;
66886;SDS011;53798;51.680;5.976;2022-08-23T15:45:39;20.90;;;2.63;;
66886;SDS011;53798;51.680;5.976;2022-08-23T15:48:11;11.90;;;1.80;;
66886;SDS011;53798;51.680;5.976;2022-08-23T15:50:45;3.55;;;1.15;;
66886;SDS011;53798;51.680;5.976;2022-08-23T15:53:14;5.03;;;1.10;;
66886;SDS011;53798;51.680;5.976;2022-08-23T15:55:42;3.65;;;1.08;;
66886;SDS011;53798;51.680;5.976;2022-08-23T15:58:15;2.33;;;1.00;;
66886;SDS011;53798;51.680;5.976;2022-08-23T16:00:46;5.93;;;1.05;;
66886;SDS011;53798;51.680;5.976;2022-08-23T16:03:15;5.22;;;1.23;;
66886;SDS011;53798;51.680;5.976;2022-08-23T16:05:49;3.30;;;0.88;;
66886;SDS011;53798;51.680;5.976;2022-08-23T16:08:23;3.20;;;1.10;;
66886;SDS011;53798;51.680;5.976;2022-08-23T16:10:56;2.80;;;1.05;;
66886;SDS011;53798;51.680;5.976;2022-08-23T16:13:25;3.00;;;1.00;;
66886;SDS011;53798;51.680;5.976;2022-08-23T16:15:52;3.67;;;1.00;;
66886;SDS011;53798;51.680;5.976;2022-08-23T16:18:20;2.92;;;0.93;;
66886;SDS011;53798;51.680;5.976;2022-08-23T16:20:47;5.13;;;1.13;;
66886;SDS011;53798;51.680;5.976;2022-08-23T16:23:16;4.85;;;1.00;;
66886;SDS011;53798;51.680;5.976;2022-08-23T16:25:43;6.78;;;1.10;;
66886;SDS011;53798;51.680;5.976;2022-08-23T16:28:10;1.88;;;0.90;;
66886;SDS011;53798;51.680;5.976;2022-08-23T16:30:44;4.30;;;1.02;;
66886;SDS011;53798;51.680;5.976;2022-08-23T16:33:11;2.83;;;0.90;;
66886;SDS011;53798;51.680;5.976;2022-08-23T16:35:38;3.17;;;0.90;;
66886;SDS011;53798;51.680;5.976;2022-08-23T16:38:05;3.50;;;1.10;;
66886;SDS011;53798;51.680;5.976;2022-08-23T16:40:33;4.25;;;1.10;;
66886;SDS011;53798;51.680;5.976;2022-08-23T16:43:01;3.88;;;1.08;;
66886;SDS011;53798;51.680;5.976;2022-08-23T16:45:28;4.88;;;0.98;;
66886;SDS011;53798;51.680;5.976;2022-08-23T16:47:56;3.05;;;1.02;;
66886;SDS011;53798;51.680;5.976;2022-08-23T16:50:23;3.30;;;1.02;;
66886;SDS011;53798;51.680;5.976;2022-08-23T16:52:50;3.45;;;1.30;;
66886;SDS011;53798;51.680;5.976;2022-08-23T16:55:17;2.67;;;0.90;;
66886;SDS011;53798;51.680;5.976;2022-08-23T16:57:46;2.25;;;0.80;;
66886;SDS011;53798;51.680;5.976;2022-08-23T17:00:13;3.88;;;0.98;;
66886;SDS011;53798;51.680;5.976;2022-08-23T17:02:41;4.18;;;1.27;;
66886;SDS011;53798;51.680;5.976;2022-08-23T17:05:11;3.15;;;0.90;;
66886;SDS011;53798;51.680;5.976;2022-08-23T17:07:44;3.35;;;1.02;;
66886;SDS011;53798;51.680;5.976;2022-08-23T17:10:14;3.38;;;1.00;;
66886;SDS011;53798;51.680;5.976;2022-08-23T17:12:43;2.75;;;0.90;;
66886;SDS011;53798;51.680;5.976;2022-08-23T17:15:18;6.40;;;1.00;;
66886;SDS011;53798;51.680;5.976;2022-08-23T17:17:53;5.53;;;1.05;;
66886;SDS011;53798;51.680;5.976;2022-08-23T17:20:21;3.55;;;0.80;;